createdAt,value
2019-01-02T00:00:35.015Z,310.84
2019-01-02T00:01:34.956Z,311.30
2019-01-02T00:02:34.945Z,311.03
2019-01-02T00:03:34.943Z,311.46
2019-01-02T00:04:34.933Z,311.64
2019-01-02T00:05:34.921Z,311.14
2019-01-02T00:06:34.937Z,311.29
2019-01-02T00:07:34.896Z,311.31
2019-01-02T00:08:34.882Z,311.28
2019-01-02T00:09:34.883Z,311.14
2019-01-02T00:10:34.872Z,311.04
2019-01-02T00:11:35.285Z,311.08
2019-01-02T00:12:34.842Z,311.20
2019-01-02T00:13:34.831Z,310.70
2019-01-02T00:14:34.811Z,311.55
2019-01-02T00:15:34.820Z,310.22
2019-01-02T00:16:34.829Z,311.39
2019-01-02T00:17:34.796Z,311.09
2019-01-02T00:18:34.782Z,311.35
2019-01-02T00:19:34.760Z,311.04
2019-01-02T00:20:34.751Z,311.06
2019-01-02T00:21:34.739Z,311.21
2019-01-02T00:22:34.755Z,310.90
2019-01-02T00:23:34.723Z,311.40
2019-01-02T00:24:34.715Z,310.78
2019-01-02T00:25:34.699Z,310.90
2019-01-02T00:26:34.681Z,311.47
2019-01-02T00:27:34.679Z,311.70
2019-01-02T00:28:34.680Z,311.42
2019-01-02T00:29:34.656Z,311.21
2019-01-02T00:30:34.656Z,310.94
2019-01-02T00:31:34.633Z,311.44
2019-01-02T00:32:34.652Z,311.08
2019-01-02T00:33:34.604Z,310.78
2019-01-02T00:34:34.609Z,310.89
2019-01-02T00:35:34.597Z,311.43
2019-01-02T00:36:34.594Z,311.15
2019-01-02T00:37:34.578Z,311.20
2019-01-02T00:38:34.603Z,310.90
2019-01-02T00:39:34.543Z,311.27
2019-01-02T00:40:34.550Z,310.99
2019-01-02T00:41:34.533Z,312.09
2019-01-02T00:42:34.518Z,310.87
2019-01-02T00:43:34.504Z,311.16
2019-01-02T00:44:34.506Z,311.23
2019-01-02T00:45:34.481Z,310.97
2019-01-02T00:46:34.465Z,311.53
2019-01-02T00:47:34.465Z,311.19
2019-01-02T00:48:34.469Z,310.86
2019-01-02T00:49:34.476Z,311.21
2019-01-02T00:50:34.452Z,310.91
2019-01-02T00:51:34.415Z,311.40
2019-01-02T00:52:34.398Z,311.42
2019-01-02T00:53:34.398Z,311.15
2019-01-02T00:54:34.404Z,311.47
2019-01-02T00:55:34.393Z,311.28
2019-01-02T00:56:34.359Z,311.31
2019-01-02T00:57:34.356Z,311.33
2019-01-02T00:58:34.335Z,311.13
2019-01-02T00:59:34.337Z,311.38
2019-01-02T01:00:34.341Z,310.82
2019-01-02T01:01:34.325Z,311.09
2019-01-02T01:02:34.305Z,311.30
2019-01-02T01:03:34.295Z,311.54
2019-01-02T01:04:34.270Z,311.48
2019-01-02T01:05:34.283Z,311.42
2019-01-02T01:06:34.250Z,311.38
2019-01-02T01:07:34.246Z,311.87
2019-01-02T01:08:34.232Z,310.89
2019-01-02T01:09:34.219Z,311.16
2019-01-02T01:10:34.227Z,311.20
2019-01-02T01:11:34.186Z,311.63
2019-01-02T01:12:34.195Z,311.35
2019-01-02T01:13:34.182Z,311.23
2019-01-02T01:14:34.168Z,311.81
2019-01-02T01:15:34.172Z,311.57
2019-01-02T01:16:34.147Z,311.10
2019-01-02T01:17:34.125Z,311.66
2019-01-02T01:18:34.118Z,311.33
2019-01-02T01:19:34.111Z,311.70
2019-01-02T01:20:34.118Z,311.61
2019-01-02T01:21:34.090Z,311.45
2019-01-02T01:22:34.092Z,311.42
2019-01-02T01:23:34.066Z,311.12
2019-01-02T01:24:34.056Z,311.81
2019-01-02T01:25:34.067Z,311.03
2019-01-02T01:26:34.030Z,313.83
2019-01-02T01:27:34.031Z,311.73
2019-01-02T01:28:34.024Z,311.48
2019-01-02T01:29:33.998Z,311.03
2019-01-02T01:30:34.006Z,311.30
2019-01-02T01:31:33.986Z,311.78
2019-01-02T01:32:33.984Z,311.02
2019-01-02T01:33:33.963Z,311.10
2019-01-02T01:34:33.956Z,311.35
2019-01-02T01:35:33.955Z,311.53
2019-01-02T01:36:33.914Z,311.71
2019-01-02T01:37:33.914Z,311.03
2019-01-02T01:38:33.906Z,311.14
2019-01-02T01:39:33.893Z,311.19
2019-01-02T01:40:33.924Z,311.38
2019-01-02T01:41:33.879Z,311.64
2019-01-02T01:42:33.861Z,311.34
2019-01-02T01:43:33.849Z,311.13
2019-01-02T01:44:33.831Z,311.29
2019-01-02T01:45:33.832Z,311.24
2019-01-02T01:46:33.839Z,311.38
2019-01-02T01:47:33.808Z,311.36
2019-01-02T01:48:33.788Z,312.06
2019-01-02T01:49:33.787Z,311.35
2019-01-02T01:50:33.791Z,311.48
2019-01-02T01:51:33.772Z,311.29
2019-01-02T01:52:33.757Z,311.60
2019-01-02T01:53:33.756Z,311.48
2019-01-02T01:54:33.740Z,310.97
2019-01-02T01:55:33.742Z,310.90
2019-01-02T01:56:33.705Z,311.03
2019-01-02T01:57:33.698Z,310.87
2019-01-02T01:58:33.683Z,311.21
2019-01-02T01:59:33.682Z,311.50
2019-01-02T02:00:33.670Z,311.83
2019-01-02T02:01:33.667Z,310.89
2019-01-02T02:02:33.636Z,310.85
2019-01-02T02:03:33.646Z,311.10
2019-01-02T02:04:33.630Z,311.38
2019-01-02T02:05:33.619Z,311.26
2019-01-02T02:06:33.630Z,311.71
2019-01-02T02:07:33.603Z,311.34
2019-01-02T02:08:33.600Z,311.27
2019-01-02T02:09:33.567Z,311.60
2019-01-02T02:10:33.558Z,311.02
2019-01-02T02:11:33.567Z,311.77
2019-01-02T02:12:33.539Z,311.03
2019-01-02T02:13:33.546Z,311.08
2019-01-02T02:14:33.519Z,311.32
2019-01-02T02:15:33.492Z,310.91
2019-01-02T02:16:33.490Z,311.69
2019-01-02T02:17:33.479Z,311.33
2019-01-02T02:18:33.512Z,311.60
2019-01-02T02:19:33.447Z,311.82
2019-01-02T02:20:33.443Z,311.28
2019-01-02T02:21:33.430Z,311.45
2019-01-02T02:22:33.423Z,311.29
2019-01-02T02:23:33.418Z,311.49
2019-01-02T02:24:33.427Z,311.68
2019-01-02T02:25:33.393Z,311.33
2019-01-02T02:26:33.388Z,311.41
2019-01-02T02:27:33.366Z,311.55
2019-01-02T02:28:33.360Z,310.90
2019-01-02T02:29:33.362Z,311.05
2019-01-02T02:30:33.329Z,310.91
2019-01-02T02:31:33.330Z,311.60
2019-01-02T02:32:33.328Z,311.68
2019-01-02T02:33:33.305Z,311.59
2019-01-02T02:34:33.811Z,311.48
2019-01-02T02:35:33.321Z,311.78
2019-01-02T02:36:33.289Z,311.69
2019-01-02T02:37:33.263Z,312.23
2019-01-02T02:38:33.258Z,311.62
2019-01-02T02:39:33.262Z,311.69
2019-01-02T02:40:33.229Z,311.20
2019-01-02T02:41:33.241Z,311.52
2019-01-02T02:42:33.203Z,311.51
2019-01-02T02:43:33.201Z,311.62
2019-01-02T02:44:33.233Z,311.95
2019-01-02T02:45:33.214Z,311.19
2019-01-02T02:46:33.182Z,311.58
2019-01-02T02:47:33.156Z,311.35
2019-01-02T02:48:33.154Z,311.41
2019-01-02T02:49:33.134Z,311.44
2019-01-02T02:50:33.153Z,311.64
2019-01-02T02:51:33.108Z,311.50
2019-01-02T02:52:33.112Z,311.21
2019-01-02T02:53:33.085Z,311.61
2019-01-02T02:54:33.073Z,312.04
2019-01-02T02:55:33.105Z,311.79
2019-01-02T02:56:33.080Z,311.62
2019-01-02T02:57:33.056Z,311.85
2019-01-02T02:58:33.055Z,312.12
2019-01-02T02:59:33.025Z,311.63
2019-01-02T03:00:33.004Z,311.64
2019-01-02T03:01:33.032Z,311.56
2019-01-02T03:02:32.989Z,311.76
2019-01-02T03:03:32.987Z,310.85
2019-01-02T03:04:32.975Z,311.25
2019-01-02T03:05:32.961Z,311.35
2019-01-02T03:06:32.942Z,311.82
2019-01-02T03:07:32.989Z,311.11
2019-01-02T03:08:32.931Z,312.01
2019-01-02T03:09:32.936Z,310.95
2019-01-02T03:10:32.904Z,311.14
2019-01-02T03:11:32.879Z,311.19
2019-01-02T03:12:32.880Z,311.20
2019-01-02T03:13:32.881Z,311.03
2019-01-02T03:14:32.856Z,310.92
2019-01-02T03:15:32.847Z,311.50
2019-01-02T03:16:32.842Z,311.54
2019-01-02T03:17:32.822Z,311.46
2019-01-02T03:18:32.826Z,311.55
2019-01-02T03:19:32.792Z,311.43
2019-01-02T03:20:32.782Z,311.71
2019-01-02T03:21:32.795Z,311.67
2019-01-02T03:22:32.771Z,311.54
2019-01-02T03:23:32.785Z,311.33
2019-01-02T03:24:32.747Z,311.31
2019-01-02T03:25:32.731Z,311.56
2019-01-02T03:26:32.728Z,311.29
2019-01-02T03:27:32.722Z,311.98
2019-01-02T03:28:32.708Z,311.46
2019-01-02T03:29:32.723Z,311.59
2019-01-02T03:30:32.686Z,312.58
2019-01-02T03:31:32.673Z,311.94
2019-01-02T03:32:32.658Z,312.33
2019-01-02T03:33:32.648Z,311.53
2019-01-02T03:34:32.640Z,311.76
2019-01-02T03:35:32.656Z,311.25
2019-01-02T03:36:32.629Z,312.55
2019-01-02T03:37:32.603Z,312.49
2019-01-02T03:38:32.600Z,312.55
2019-01-02T03:39:32.599Z,312.08
2019-01-02T03:40:32.600Z,311.91
2019-01-02T03:41:32.567Z,312.54
2019-01-02T03:42:32.567Z,312.20
2019-01-02T03:43:32.541Z,312.08
2019-01-02T03:44:32.526Z,312.92
2019-01-02T03:45:32.557Z,312.43
2019-01-02T03:46:32.505Z,312.10
2019-01-02T03:47:32.505Z,311.47
2019-01-02T03:48:32.495Z,310.95
2019-01-02T03:49:32.484Z,311.46
2019-01-02T03:50:32.480Z,311.41
2019-01-02T03:51:32.485Z,311.65
2019-01-02T03:52:32.456Z,311.70
2019-01-02T03:53:32.434Z,311.35
2019-01-02T03:54:32.433Z,311.93
2019-01-02T03:55:32.412Z,312.24
2019-01-02T03:56:32.397Z,311.49
2019-01-02T03:57:32.405Z,312.34
2019-01-02T03:58:32.394Z,311.90
2019-01-02T03:59:32.372Z,312.39
2019-01-02T04:00:32.375Z,311.71
2019-01-02T04:01:32.386Z,311.58
2019-01-02T04:02:32.346Z,312.14
2019-01-02T04:03:32.337Z,312.63
2019-01-02T04:04:32.313Z,311.88
2019-01-02T04:05:32.298Z,311.79
2019-01-02T04:06:32.289Z,311.98
2019-01-02T04:07:32.326Z,312.11
2019-01-02T04:08:32.301Z,311.54
2019-01-02T04:09:32.260Z,312.44
2019-01-02T04:10:32.248Z,311.89
2019-01-02T04:11:32.251Z,311.17
2019-01-02T04:12:32.247Z,311.51
2019-01-02T04:13:32.338Z,311.83
2019-01-02T04:14:32.218Z,312.87
2019-01-02T04:15:32.196Z,312.48
2019-01-02T04:16:32.181Z,313.87
2019-01-02T04:17:32.182Z,313.12
2019-01-02T04:18:32.189Z,312.67
2019-01-02T04:19:32.156Z,312.43
2019-01-02T04:20:32.148Z,313.25
2019-01-02T04:21:32.143Z,313.45
2019-01-02T04:22:32.130Z,313.14
2019-01-02T04:23:32.112Z,313.75
2019-01-02T04:24:32.120Z,313.09
2019-01-02T04:25:32.088Z,312.70
2019-01-02T04:26:32.087Z,312.91
2019-01-02T04:27:32.067Z,312.69
2019-01-02T04:28:32.046Z,312.50
2019-01-02T04:29:32.063Z,313.32
2019-01-02T04:30:32.028Z,312.48
2019-01-02T04:31:32.024Z,312.79
2019-01-02T04:32:32.014Z,312.75
2019-01-02T04:33:31.999Z,313.00
2019-01-02T04:34:31.999Z,313.54
2019-01-02T04:35:32.000Z,312.56
2019-01-02T04:36:31.958Z,312.42
2019-01-02T04:37:31.961Z,312.67
2019-01-02T04:38:31.944Z,313.03
2019-01-02T04:39:31.943Z,313.03
2019-01-02T04:40:31.935Z,312.35
2019-01-02T04:41:31.939Z,312.76
2019-01-02T04:42:31.902Z,312.95
2019-01-02T04:43:31.893Z,312.54
2019-01-02T04:44:31.888Z,312.94
2019-01-02T04:45:31.870Z,312.57
2019-01-02T04:46:31.867Z,312.44
2019-01-02T04:47:31.922Z,312.44
2019-01-02T04:48:31.838Z,311.86
2019-01-02T04:49:31.824Z,311.71
2019-01-02T04:50:31.844Z,311.36
2019-01-02T04:51:31.811Z,311.26
2019-01-02T04:52:31.808Z,310.86
2019-01-02T04:53:31.815Z,311.38
2019-01-02T04:54:31.779Z,312.12
2019-01-02T04:55:31.758Z,311.97
2019-01-02T04:56:31.746Z,311.77
2019-01-02T04:57:31.768Z,312.30
2019-01-02T04:58:31.754Z,311.72
2019-01-02T04:59:31.728Z,311.76
2019-01-02T05:00:31.708Z,312.10
2019-01-02T05:01:31.695Z,311.77
2019-01-02T05:02:31.717Z,314.07
2019-01-02T05:03:31.682Z,312.68
2019-01-02T05:04:31.673Z,311.86
2019-01-02T05:05:31.658Z,311.73
2019-01-02T05:06:31.650Z,312.72
2019-01-02T05:07:31.627Z,312.41
2019-01-02T05:08:31.636Z,313.05
2019-01-02T05:09:32.910Z,311.95
2019-01-02T05:10:31.592Z,311.97
2019-01-02T05:11:31.596Z,311.97
2019-01-02T05:12:31.581Z,311.57
2019-01-02T05:13:31.583Z,311.71
2019-01-02T05:14:31.550Z,311.93
2019-01-02T05:15:31.556Z,311.79
2019-01-02T05:16:31.538Z,312.04
2019-01-02T05:17:31.525Z,312.60
2019-01-02T05:18:31.539Z,311.94
2019-01-02T05:19:31.513Z,311.83
2019-01-02T05:20:31.511Z,311.83
2019-01-02T05:21:31.482Z,311.78
2019-01-02T05:22:31.484Z,312.08
2019-01-02T05:23:31.478Z,314.18
2019-01-02T05:24:31.473Z,313.94
2019-01-02T05:25:31.444Z,311.29
2019-01-02T05:26:31.428Z,312.65
2019-01-02T05:27:31.412Z,311.61
2019-01-02T05:28:31.408Z,311.84
2019-01-02T05:29:31.436Z,312.11
2019-01-02T05:30:31.390Z,312.17
2019-01-02T05:31:31.385Z,311.67
2019-01-02T05:32:31.353Z,312.63
2019-01-02T05:33:31.352Z,313.36
2019-01-02T05:34:31.343Z,311.66
2019-01-02T05:35:31.351Z,312.27
2019-01-02T05:36:31.321Z,312.20
2019-01-02T05:37:31.324Z,311.90
2019-01-02T05:38:31.296Z,312.20
2019-01-02T05:39:31.288Z,311.17
2019-01-02T05:40:31.310Z,311.62
2019-01-02T05:41:31.272Z,312.74
2019-01-02T05:42:31.249Z,311.63
2019-01-02T05:43:31.247Z,312.45
2019-01-02T05:44:31.232Z,311.91
2019-01-02T05:45:31.209Z,312.38
2019-01-02T05:46:31.226Z,312.81
2019-01-02T05:47:31.199Z,312.38
2019-01-02T05:48:31.199Z,311.92
2019-01-02T05:49:31.179Z,312.08
2019-01-02T05:50:31.168Z,312.87
2019-01-02T05:51:31.179Z,312.02
2019-01-02T05:52:31.137Z,311.73
2019-01-02T05:53:31.121Z,312.19
2019-01-02T05:54:31.119Z,311.48
2019-01-02T05:55:31.125Z,312.51
2019-01-02T05:56:31.103Z,312.43
2019-01-02T05:57:31.113Z,312.65
2019-01-02T05:58:31.080Z,312.44
2019-01-02T05:59:31.062Z,313.08
2019-01-02T06:00:31.058Z,312.00
2019-01-02T06:01:31.044Z,312.17
2019-01-02T06:02:31.066Z,313.41
2019-01-02T06:03:31.019Z,313.65
2019-01-02T06:04:31.001Z,312.41
2019-01-02T06:05:30.997Z,312.73
2019-01-02T06:06:30.983Z,312.36
2019-01-02T06:07:30.983Z,311.94
2019-01-02T06:08:30.997Z,311.49
2019-01-02T06:09:30.961Z,312.85
2019-01-02T06:10:30.956Z,312.79
2019-01-02T06:11:30.961Z,313.61
2019-01-02T06:12:30.920Z,314.11
2019-01-02T06:13:30.908Z,313.89
2019-01-02T06:14:30.921Z,313.29
2019-01-02T06:15:30.898Z,313.00
2019-01-02T06:16:30.908Z,311.24
2019-01-02T06:17:30.862Z,312.00
2019-01-02T06:18:30.855Z,312.28
2019-01-02T06:19:30.878Z,311.69
2019-01-02T06:20:30.837Z,312.06
2019-01-02T06:21:30.831Z,312.95
2019-01-02T06:22:30.831Z,312.35
2019-01-02T06:23:30.802Z,313.05
2019-01-02T06:24:30.784Z,312.62
2019-01-02T06:25:30.791Z,313.05
2019-01-02T06:26:30.769Z,313.60
2019-01-02T06:27:30.772Z,313.73
2019-01-02T06:28:30.759Z,313.25
2019-01-02T06:29:30.748Z,314.33
2019-01-02T06:30:30.764Z,313.35
2019-01-02T06:31:30.715Z,314.23
2019-01-02T06:32:30.701Z,313.67
2019-01-02T06:33:30.708Z,313.82
2019-01-02T06:34:30.690Z,314.08
2019-01-02T06:35:30.675Z,313.91
2019-01-02T06:36:30.678Z,314.14
2019-01-02T06:37:30.654Z,312.94
2019-01-02T06:38:30.636Z,312.63
2019-01-02T06:39:30.653Z,313.93
2019-01-02T06:40:30.621Z,313.04
2019-01-02T06:41:30.633Z,312.95
2019-01-02T06:42:30.601Z,313.95
2019-01-02T06:43:30.596Z,312.66
2019-01-02T06:44:30.580Z,312.47
2019-01-02T06:45:30.581Z,313.42
2019-01-02T06:46:30.549Z,312.29
2019-01-02T06:47:30.567Z,312.72
2019-01-02T06:48:30.541Z,312.18
2019-01-02T06:49:30.589Z,313.25
2019-01-02T06:50:30.508Z,313.45
2019-01-02T06:51:30.529Z,312.55
2019-01-02T06:52:30.496Z,312.02
2019-01-02T06:53:30.508Z,312.32
2019-01-02T06:54:30.471Z,312.52
2019-01-02T06:55:30.467Z,312.11
2019-01-02T06:56:30.440Z,313.48
2019-01-02T06:57:30.434Z,313.09
2019-01-02T06:58:30.420Z,312.12
2019-01-02T06:59:30.438Z,311.87
2019-01-02T07:00:30.411Z,312.38
2019-01-02T07:01:30.419Z,312.50
2019-01-02T07:02:30.387Z,312.96
2019-01-02T07:03:30.362Z,311.78
2019-01-02T07:04:30.354Z,312.56
2019-01-02T07:05:30.349Z,311.63
2019-01-02T07:06:30.369Z,312.50
2019-01-02T07:07:31.282Z,312.74
2019-01-02T07:08:30.308Z,313.35
2019-01-02T07:09:30.302Z,312.86
2019-01-02T07:10:30.294Z,312.11
2019-01-02T07:11:30.287Z,311.94
2019-01-02T07:12:30.290Z,312.36
2019-01-02T07:13:30.263Z,312.24
2019-01-02T07:14:30.247Z,313.60
2019-01-02T07:15:30.238Z,312.85
2019-01-02T07:16:30.258Z,312.67
2019-01-02T07:17:30.216Z,312.39
2019-01-02T07:18:30.211Z,312.17
2019-01-02T07:19:30.206Z,312.40
2019-01-02T07:20:30.191Z,311.71
2019-01-02T07:21:30.169Z,311.69
2019-01-02T07:22:30.188Z,311.90
2019-01-02T07:23:30.165Z,312.04
2019-01-02T07:24:30.149Z,311.71
2019-01-02T07:25:30.130Z,311.58
2019-01-02T07:26:30.125Z,311.68
2019-01-02T07:27:30.118Z,312.69
2019-01-02T07:28:30.084Z,312.23
2019-01-02T07:29:30.086Z,312.05
2019-01-02T07:30:30.076Z,311.53
2019-01-02T07:31:30.058Z,312.30
2019-01-02T07:32:30.086Z,311.94
2019-01-02T07:33:30.041Z,311.90
2019-01-02T07:34:30.025Z,311.54
2019-01-02T07:35:30.032Z,312.30
2019-01-02T07:36:30.028Z,310.97
2019-01-02T07:37:30.079Z,311.56
2019-01-02T07:38:30.006Z,311.61
2019-01-02T07:39:29.979Z,311.77
2019-01-02T07:40:29.968Z,311.98
2019-01-02T07:41:29.997Z,312.06
2019-01-02T07:42:29.972Z,312.04
2019-01-02T07:43:29.920Z,311.02
2019-01-02T07:44:29.939Z,311.85
2019-01-02T07:45:29.915Z,312.05
2019-01-02T07:46:29.901Z,312.70
2019-01-02T07:47:29.903Z,311.58
2019-01-02T07:48:29.886Z,312.27
2019-01-02T07:49:29.907Z,312.68
2019-01-02T07:50:29.863Z,311.88
2019-01-02T07:51:29.851Z,313.03
2019-01-02T07:52:29.832Z,312.43
2019-01-02T07:53:29.831Z,312.63
2019-01-02T07:54:29.840Z,312.66
2019-01-02T07:55:29.812Z,312.73
2019-01-02T07:56:29.787Z,312.08
2019-01-02T07:57:29.783Z,311.24
2019-01-02T07:58:29.770Z,313.02
2019-01-02T07:59:29.769Z,311.28
2019-01-02T08:00:29.779Z,312.27
2019-01-02T08:01:29.754Z,311.90
2019-01-02T08:02:29.729Z,312.43
2019-01-02T08:03:29.712Z,314.06
2019-01-02T08:04:29.706Z,311.61
2019-01-02T08:05:29.690Z,311.63
2019-01-02T08:06:29.699Z,312.32
2019-01-02T08:07:29.682Z,311.34
2019-01-02T08:08:29.675Z,312.45
2019-01-02T08:09:29.644Z,312.08
2019-01-02T08:10:29.644Z,312.13
2019-01-02T08:11:29.655Z,312.38
2019-01-02T08:12:29.648Z,312.60
2019-01-02T08:13:29.602Z,312.37
2019-01-02T08:14:29.647Z,311.50
2019-01-02T08:15:29.583Z,312.65
2019-01-02T08:16:29.583Z,311.75
2019-01-02T08:17:29.607Z,312.13
2019-01-02T08:18:29.610Z,311.02
2019-01-02T08:19:29.546Z,312.35
2019-01-02T08:20:29.537Z,312.58
2019-01-02T08:21:29.561Z,312.97
2019-01-02T08:22:29.534Z,312.81
2019-01-02T08:23:29.489Z,313.49
2019-01-02T08:24:29.481Z,313.01
2019-01-02T08:25:29.512Z,312.39
2019-01-02T08:26:29.487Z,311.42
2019-01-02T08:27:29.473Z,311.81
2019-01-02T08:28:29.446Z,312.42
2019-01-02T08:29:29.423Z,312.12
2019-01-02T08:30:29.412Z,312.55
2019-01-02T08:31:29.408Z,312.52
2019-01-02T08:32:29.404Z,311.45
2019-01-02T08:33:29.420Z,311.25
2019-01-02T08:34:29.381Z,311.44
2019-01-02T08:35:29.361Z,312.36
2019-01-02T08:36:29.360Z,311.73
2019-01-02T08:37:29.342Z,312.25
2019-01-02T08:38:29.350Z,312.24
2019-01-02T08:39:29.349Z,311.94
2019-01-02T08:40:29.311Z,312.03
2019-01-02T08:41:29.299Z,311.80
2019-01-02T08:42:29.294Z,312.29
2019-01-02T08:43:29.280Z,313.35
2019-01-02T08:44:29.305Z,312.21
2019-01-02T08:45:29.271Z,312.82
2019-01-02T08:46:29.247Z,312.13
2019-01-02T08:47:29.235Z,313.24
2019-01-02T08:48:29.217Z,313.29
2019-01-02T08:49:29.219Z,311.01
2019-01-02T08:50:29.217Z,312.70
2019-01-02T08:51:29.198Z,312.40
2019-01-02T08:52:29.183Z,312.24
2019-01-02T08:53:29.184Z,313.87
2019-01-02T08:54:29.168Z,312.37
2019-01-02T08:55:29.182Z,312.47
2019-01-02T08:56:29.133Z,312.96
2019-01-02T08:57:29.139Z,313.13
2019-01-02T08:58:29.120Z,312.32
2019-01-02T08:59:29.102Z,311.54
2019-01-02T09:00:29.085Z,311.98
2019-01-02T09:01:29.092Z,311.60
2019-01-02T09:02:29.075Z,312.48
2019-01-02T09:03:29.072Z,313.10
2019-01-02T09:04:29.057Z,312.19
2019-01-02T09:05:29.043Z,312.12
2019-01-02T09:06:29.067Z,312.43
2019-01-02T09:07:29.009Z,313.71
2019-01-02T09:08:28.999Z,314.19
2019-01-02T09:09:29.024Z,312.86
2019-01-02T09:10:28.985Z,313.37
2019-01-02T09:11:28.976Z,314.13
2019-01-02T09:12:29.000Z,313.14
2019-01-02T09:13:28.951Z,312.02
2019-01-02T09:14:28.940Z,312.21
2019-01-02T09:15:28.932Z,312.26
2019-01-02T09:16:28.935Z,312.16
2019-01-02T09:17:28.914Z,313.05
2019-01-02T09:18:28.930Z,312.59
2019-01-02T09:19:28.885Z,312.10
2019-01-02T09:20:28.879Z,312.83
2019-01-02T09:21:28.855Z,312.72
2019-01-02T09:22:28.844Z,312.21
2019-01-02T09:23:28.867Z,312.95
2019-01-02T09:24:28.848Z,312.56
2019-01-02T09:25:28.822Z,313.23
2019-01-02T09:26:28.821Z,313.21
2019-01-02T09:27:28.790Z,312.98
2019-01-02T09:28:28.812Z,313.24
2019-01-02T09:29:28.785Z,313.41
2019-01-02T09:30:28.776Z,313.56
2019-01-02T09:31:28.752Z,312.95
2019-01-02T09:32:28.736Z,313.59
2019-01-02T09:33:28.739Z,313.91
2019-01-02T09:34:28.739Z,313.06
2019-01-02T09:35:28.724Z,313.91
2019-01-02T09:36:28.715Z,313.55
2019-01-02T09:37:28.694Z,313.75
2019-01-02T09:38:28.697Z,313.23
2019-01-02T09:39:28.672Z,312.98
2019-01-02T09:40:28.722Z,313.84
2019-01-02T09:41:30.144Z,314.84
2019-01-02T09:42:28.655Z,313.61
2019-01-02T09:43:28.633Z,313.89
2019-01-02T09:44:28.637Z,313.96
2019-01-02T09:45:28.601Z,313.40
2019-01-02T09:46:28.648Z,313.52
2019-01-02T09:47:28.630Z,313.80
2019-01-02T09:48:28.604Z,314.00
2019-01-02T09:49:28.568Z,314.05
2019-01-02T09:50:28.555Z,313.89
2019-01-02T09:51:28.575Z,313.79
2019-01-02T09:52:28.521Z,314.24
2019-01-02T09:53:28.524Z,314.58
2019-01-02T09:54:28.503Z,313.54
2019-01-02T09:55:28.504Z,314.01
2019-01-02T09:56:28.523Z,314.24
2019-01-02T09:57:28.488Z,314.12
2019-01-02T09:58:28.465Z,314.12
2019-01-02T09:59:28.447Z,313.44
2019-01-02T10:00:28.433Z,314.09
2019-01-02T10:01:28.438Z,314.82
2019-01-02T10:02:28.456Z,314.88
2019-01-02T10:03:28.403Z,314.69
2019-01-02T10:04:28.401Z,315.40
2019-01-02T10:05:28.410Z,314.91
2019-01-02T10:06:28.369Z,313.86
2019-01-02T10:07:28.377Z,313.93
2019-01-02T10:08:28.397Z,313.63
2019-01-02T10:09:28.343Z,314.08
2019-01-02T10:10:28.344Z,313.79
2019-01-02T10:11:28.347Z,314.53
2019-01-02T10:12:28.308Z,315.05
2019-01-02T10:13:28.319Z,314.47
2019-01-02T10:14:28.292Z,314.62
2019-01-02T10:15:28.279Z,315.12
2019-01-02T10:16:28.266Z,314.82
2019-01-02T10:17:28.246Z,315.25
2019-01-02T10:18:28.245Z,315.52
2019-01-02T10:19:28.271Z,314.22
2019-01-02T10:20:28.237Z,315.09
2019-01-02T10:21:28.214Z,315.01
2019-01-02T10:22:28.201Z,314.60
2019-01-02T10:23:28.192Z,314.56
2019-01-02T10:24:28.190Z,314.79
2019-01-02T10:25:28.196Z,314.46
2019-01-02T10:26:28.150Z,314.09
2019-01-02T10:27:28.164Z,314.41
2019-01-02T10:28:28.139Z,313.93
2019-01-02T10:29:28.125Z,314.22
2019-01-02T10:30:28.122Z,314.65
2019-01-02T10:31:28.168Z,314.88
2019-01-02T10:32:28.081Z,315.60
2019-01-02T10:33:28.092Z,315.31
2019-01-02T10:34:28.086Z,314.63
2019-01-02T10:35:28.060Z,315.38
2019-01-02T10:36:28.063Z,315.42
2019-01-02T10:37:28.041Z,315.89
2019-01-02T10:38:28.050Z,314.06
2019-01-02T10:39:28.022Z,313.19
2019-01-02T10:40:28.047Z,314.71
2019-01-02T10:41:28.004Z,314.44
2019-01-02T10:42:27.990Z,314.10
2019-01-02T10:43:28.004Z,313.89
2019-01-02T10:44:27.959Z,313.78
2019-01-02T10:45:27.944Z,314.35
2019-01-02T10:46:27.930Z,314.55
2019-01-02T10:47:27.957Z,313.87
2019-01-02T10:48:27.927Z,314.24
2019-01-02T10:49:27.923Z,313.48
2019-01-02T10:50:27.893Z,314.75
2019-01-02T10:51:27.899Z,314.33
2019-01-02T10:52:27.889Z,314.33
2019-01-02T10:53:27.889Z,313.56
2019-01-02T10:54:27.859Z,313.95
2019-01-02T10:55:27.837Z,313.62
2019-01-02T10:56:27.864Z,313.79
2019-01-02T10:57:27.818Z,313.67
2019-01-02T10:58:27.843Z,314.10
2019-01-02T10:59:27.805Z,314.63
2019-01-02T11:00:27.803Z,313.79
2019-01-02T11:01:27.776Z,314.49
2019-01-02T11:02:27.785Z,313.91
2019-01-02T11:03:27.746Z,320.69
2019-01-02T11:04:27.763Z,323.34
2019-01-02T11:05:27.739Z,310.10
2019-01-02T11:06:27.736Z,310.62
2019-01-02T11:07:27.712Z,310.71
2019-01-02T11:08:27.688Z,310.00
2019-01-02T11:09:27.735Z,312.32
2019-01-02T11:10:27.679Z,312.19
2019-01-02T11:11:27.681Z,310.40
2019-01-02T11:12:27.659Z,310.90
2019-01-02T11:13:27.652Z,312.91
2019-01-02T11:14:27.647Z,312.44
2019-01-02T11:15:27.635Z,309.49
2019-01-02T11:16:27.618Z,310.92
2019-01-02T11:17:27.628Z,309.83
2019-01-02T11:18:27.595Z,309.23
2019-01-02T11:19:27.594Z,310.25
2019-01-02T11:20:27.602Z,310.12
2019-01-02T11:21:27.561Z,312.18
2019-01-02T11:22:27.547Z,309.43
2019-01-02T11:23:27.548Z,310.37
2019-01-02T11:24:27.528Z,308.00
2019-01-02T11:25:27.536Z,308.88
2019-01-02T11:26:27.544Z,310.04
2019-01-02T11:27:27.487Z,309.20
2019-01-02T11:28:27.482Z,309.75
2019-01-02T11:29:27.489Z,309.32
2019-01-02T11:30:27.455Z,310.09
2019-01-02T11:31:27.451Z,309.64
2019-01-02T11:32:27.479Z,309.05
2019-01-02T11:33:27.451Z,311.33
2019-01-02T11:34:27.424Z,309.64
2019-01-02T11:35:27.417Z,311.08
2019-01-02T11:36:27.401Z,309.49
2019-01-02T11:37:27.400Z,308.74
2019-01-02T11:38:27.427Z,310.74
2019-01-02T11:39:27.381Z,307.13
2019-01-02T11:40:27.369Z,311.22
2019-01-02T11:41:27.355Z,309.86
2019-01-02T11:42:27.320Z,309.60
2019-01-02T11:43:27.350Z,309.92
2019-01-02T11:44:27.316Z,310.97
2019-01-02T11:45:27.321Z,309.46
2019-01-02T11:46:27.291Z,309.83
2019-01-02T11:47:27.267Z,311.22
2019-01-02T11:48:27.274Z,309.39
2019-01-02T11:49:27.248Z,309.17
2019-01-02T11:50:27.261Z,310.58
2019-01-02T11:51:27.237Z,310.79
2019-01-02T11:52:27.239Z,310.15
2019-01-02T11:53:27.209Z,309.59
2019-01-02T11:54:27.225Z,310.35
2019-01-02T11:55:27.194Z,310.37
2019-01-02T11:56:27.196Z,311.11
2019-01-02T11:57:27.172Z,310.79
2019-01-02T11:58:27.164Z,310.72
2019-01-02T11:59:27.143Z,311.26
2019-01-02T12:00:27.157Z,310.96
2019-01-02T12:01:27.124Z,309.73
2019-01-02T12:02:27.125Z,310.08
2019-01-02T12:03:27.107Z,309.80
2019-01-02T12:04:27.087Z,309.61
2019-01-02T12:05:27.090Z,309.61
2019-01-02T12:06:27.099Z,310.87
2019-01-02T12:07:27.099Z,310.03
2019-01-02T12:08:27.044Z,310.68
2019-01-02T12:09:27.048Z,310.62
2019-01-02T12:10:27.027Z,310.96
2019-01-02T12:11:27.002Z,310.95
2019-01-02T12:12:27.044Z,309.37
2019-01-02T12:13:26.987Z,311.97
2019-01-02T12:14:26.976Z,308.83
2019-01-02T12:15:26.989Z,308.84
2019-01-02T12:16:27.863Z,310.28
2019-01-02T12:17:26.956Z,309.19
2019-01-02T12:18:26.956Z,311.38
2019-01-02T12:19:26.924Z,310.55
2019-01-02T12:20:26.919Z,311.17
2019-01-02T12:21:26.893Z,310.39
2019-01-02T12:22:26.927Z,312.66
2019-01-02T12:23:26.903Z,310.77
2019-01-02T12:24:26.888Z,311.94
2019-01-02T12:25:26.865Z,308.93
2019-01-02T12:26:26.855Z,309.71
2019-01-02T12:27:26.850Z,309.57
2019-01-02T12:28:26.856Z,309.45